createdAt,value
2023-04-18T00:00:13.972Z,95041.00
2023-04-18T00:01:13.990Z,95037.00
2023-04-18T00:02:14.086Z,95041.00
2023-04-18T00:03:14.236Z,95039.00
2023-04-18T00:04:14.640Z,95039.00
2023-04-18T00:05:14.215Z,95039.00
2023-04-18T00:06:14.220Z,95033.00
2023-04-18T00:07:14.338Z,95037.00
2023-04-18T00:08:14.391Z,95035.00
2023-04-18T00:09:14.473Z,95037.00
2023-04-18T00:10:14.473Z,95035.00
2023-04-18T00:11:14.489Z,95029.00
2023-04-18T00:12:14.566Z,95031.00
2023-04-18T00:13:14.637Z,95031.00
2023-04-18T00:14:15.075Z,95031.00
2023-04-18T00:15:14.730Z,95029.00
2023-04-18T00:16:14.816Z,95029.00
2023-04-18T00:17:14.833Z,95029.00
2023-04-18T00:18:14.858Z,95029.00
2023-04-18T00:19:14.922Z,95029.00
2023-04-18T00:20:14.980Z,95027.00
2023-04-18T00:21:15.036Z,95025.00
2023-04-18T00:22:15.037Z,95025.00
2023-04-18T00:23:15.109Z,95025.00
2023-04-18T00:24:15.347Z,95027.00
2023-04-18T00:25:15.223Z,95027.00
2023-04-18T00:26:15.209Z,95029.00
2023-04-18T00:27:15.297Z,95027.00
2023-04-18T00:28:15.336Z,95029.00
2023-04-18T00:29:15.335Z,95027.00
2023-04-18T00:30:15.392Z,95025.00
2023-04-18T00:31:15.483Z,95027.00
2023-04-18T00:32:15.521Z,95029.00
2023-04-18T00:33:15.517Z,95025.00
2023-04-18T00:34:15.716Z,95031.00
2023-04-18T00:35:15.659Z,95027.00
2023-04-18T00:36:15.664Z,95027.00
2023-04-18T00:37:15.775Z,95025.00
2023-04-18T00:38:15.783Z,95027.00
2023-04-18T00:39:15.819Z,95027.00
2023-04-18T00:40:15.883Z,95027.00
2023-04-18T00:41:15.995Z,95027.00
2023-04-18T00:42:15.999Z,95027.00
2023-04-18T00:43:16.023Z,95027.00
2023-04-18T00:44:16.210Z,95025.00
2023-04-18T00:45:16.150Z,95027.00
2023-04-18T00:46:16.157Z,95027.00
2023-04-18T00:47:16.198Z,95025.00
2023-04-18T00:48:16.174Z,95025.00
2023-04-18T00:49:16.248Z,95019.00
2023-04-18T00:50:16.324Z,95023.00
2023-04-18T00:51:16.358Z,95023.00
2023-04-18T00:52:16.436Z,95021.00
2023-04-18T00:53:16.486Z,95023.00
2023-04-18T00:54:16.606Z,95019.00
2023-04-18T00:55:16.600Z,95019.00
2023-04-18T00:56:16.647Z,95019.00
2023-04-18T00:57:16.703Z,95019.00
2023-04-18T00:58:16.743Z,95021.00
2023-04-18T00:59:16.740Z,95019.00
2023-04-18T01:00:16.782Z,95019.00
2023-04-18T01:01:16.784Z,95021.00
2023-04-18T01:02:16.835Z,95019.00
2023-04-18T01:03:16.865Z,95019.00
2023-04-18T01:04:17.112Z,95019.00
2023-04-18T01:05:16.772Z,95017.00
2023-04-18T01:06:16.801Z,95019.00
2023-04-18T01:07:16.783Z,95019.00
2023-04-18T01:08:16.824Z,95021.00
2023-04-18T01:09:16.895Z,95021.00
2023-04-18T01:10:16.954Z,95017.00
2023-04-18T01:11:16.952Z,95019.00
2023-04-18T01:12:17.046Z,95019.00
2023-04-18T01:13:17.082Z,95019.00
2023-04-18T01:14:17.136Z,95021.00
2023-04-18T01:15:17.149Z,95017.00
2023-04-18T01:16:17.185Z,95019.00
2023-04-18T01:17:17.266Z,95017.00
2023-04-18T01:18:17.276Z,95015.00
2023-04-18T01:19:17.329Z,95015.00
2023-04-18T01:20:17.390Z,95015.00
2023-04-18T01:21:17.435Z,95013.00
2023-04-18T01:22:17.501Z,95011.00
2023-04-18T01:23:17.545Z,95011.00
2023-04-18T01:24:17.568Z,95009.00
2023-04-18T01:25:17.612Z,95009.00
2023-04-18T01:26:17.669Z,95009.00
2023-04-18T01:27:17.739Z,95011.00
2023-04-18T01:28:17.784Z,95011.00
2023-04-18T01:29:17.820Z,95005.00
2023-04-18T01:30:17.866Z,95007.00
2023-04-18T01:31:17.959Z,95005.00
2023-04-18T01:32:17.926Z,95007.00
2023-04-18T01:33:17.982Z,95003.00
2023-04-18T01:34:18.075Z,95005.00
2023-04-18T01:35:18.043Z,95005.00
2023-04-18T01:36:18.108Z,95007.00
2023-04-18T01:37:18.286Z,95007.00
2023-04-18T01:38:18.233Z,95005.00
2023-04-18T01:39:18.306Z,95005.00
2023-04-18T01:40:18.660Z,95005.00
2023-04-18T01:41:18.358Z,95005.00
2023-04-18T01:42:18.405Z,95001.00
2023-04-18T01:43:18.480Z,95001.00
2023-04-18T01:44:18.526Z,95005.00
2023-04-18T01:45:18.592Z,95003.00
2023-04-18T01:46:18.633Z,95005.00
2023-04-18T01:47:18.763Z,95005.00
2023-04-18T01:48:18.686Z,95003.00
2023-04-18T01:49:18.774Z,95005.00
2023-04-18T01:50:18.808Z,95003.00
2023-04-18T01:51:18.879Z,95003.00
2023-04-18T01:52:18.923Z,95001.00
2023-04-18T01:53:18.984Z,95005.00
2023-04-18T01:54:19.043Z,95005.00
2023-04-18T01:55:19.105Z,95005.00
2023-04-18T01:56:19.616Z,95005.00
2023-04-18T01:57:19.164Z,95005.00
2023-04-18T01:58:19.282Z,95009.00
2023-04-18T01:59:19.283Z,95005.00
2023-04-18T02:00:19.394Z,95005.00
2023-04-18T02:01:19.496Z,95007.00
2023-04-18T02:02:19.591Z,95005.00
2023-04-18T02:03:19.633Z,95005.00
2023-04-18T02:04:19.624Z,95005.00
2023-04-18T02:05:19.629Z,95003.00
2023-04-18T02:06:19.642Z,95003.00
2023-04-18T02:07:19.643Z,95001.00
2023-04-18T02:08:19.701Z,95003.00
2023-04-18T02:09:19.703Z,95003.00
2023-04-18T02:10:19.714Z,95003.00
2023-04-18T02:11:19.797Z,95003.00
2023-04-18T02:12:19.793Z,95003.00
2023-04-18T02:13:19.906Z,95005.00
2023-04-18T02:14:19.941Z,95005.00
2023-04-18T02:15:19.960Z,95003.00
2023-04-18T02:16:19.993Z,95003.00
2023-04-18T02:17:19.965Z,95005.00
2023-04-18T02:18:19.973Z,95001.00
2023-04-18T02:19:20.048Z,95001.00
2023-04-18T02:20:20.020Z,95001.00
2023-04-18T02:21:20.054Z,95001.00
2023-04-18T02:22:20.068Z,95001.00
2023-04-18T02:23:20.068Z,95001.00
2023-04-18T02:24:20.084Z,95003.00
2023-04-18T02:25:20.108Z,95005.00
2023-04-18T02:26:20.086Z,95005.00
2023-04-18T02:27:20.103Z,95007.00
2023-04-18T02:28:20.162Z,95009.00
2023-04-18T02:29:20.247Z,95009.00
2023-04-18T02:30:20.312Z,95007.00
2023-04-18T02:31:20.418Z,95009.00
2023-04-18T02:32:20.509Z,95007.00
2023-04-18T02:33:20.464Z,95009.00
2023-04-18T02:34:20.621Z,95009.00
2023-04-18T02:35:20.611Z,95005.00
2023-04-18T02:36:20.668Z,95007.00
2023-04-18T02:37:20.717Z,95011.00
2023-04-18T02:38:20.779Z,95009.00
2023-04-18T02:39:20.832Z,95007.00
2023-04-18T02:40:20.894Z,95009.00
2023-04-18T02:41:20.910Z,95009.00
2023-04-18T02:42:20.960Z,95009.00
2023-04-18T02:43:20.936Z,95011.00
2023-04-18T02:44:20.954Z,95007.00
2023-04-18T02:45:20.978Z,95005.00
2023-04-18T02:46:21.012Z,95009.00
2023-04-18T02:47:20.985Z,95009.00
2023-04-18T02:48:21.021Z,95009.00
2023-04-18T02:49:21.009Z,95007.00
2023-04-18T02:50:20.987Z,95007.00
2023-04-18T02:51:21.023Z,95009.00
2023-04-18T02:52:21.026Z,95009.00
2023-04-18T02:53:21.088Z,95007.00
2023-04-18T02:54:21.141Z,95007.00
2023-04-18T02:55:21.201Z,95007.00
2023-04-18T02:56:21.264Z,95005.00
2023-04-18T02:57:21.314Z,95003.00
2023-04-18T02:58:21.366Z,95001.00
2023-04-18T02:59:21.437Z,95001.00
2023-04-18T03:00:21.489Z,95003.00
2023-04-18T03:01:21.586Z,94999.00
2023-04-18T03:02:21.681Z,95001.00
2023-04-18T03:03:21.638Z,95003.00
2023-04-18T03:04:21.653Z,95003.00
2023-04-18T03:05:21.637Z,95001.00
2023-04-18T03:06:21.629Z,95001.00
2023-04-18T03:07:21.645Z,95001.00
2023-04-18T03:08:21.680Z,94999.00
2023-04-18T03:09:21.658Z,94999.00
2023-04-18T03:10:21.715Z,94999.00
2023-04-18T03:11:21.764Z,94997.00
2023-04-18T03:12:21.835Z,94997.00
2023-04-18T03:13:21.881Z,94997.00
2023-04-18T03:14:21.891Z,94997.00
2023-04-18T03:15:21.952Z,94997.00
2023-04-18T03:16:22.043Z,94996.00
2023-04-18T03:17:22.099Z,94997.00
2023-04-18T03:18:22.086Z,94997.00
2023-04-18T03:19:22.122Z,94997.00
2023-04-18T03:20:22.178Z,94997.00
2023-04-18T03:21:22.220Z,94997.00
2023-04-18T03:22:22.242Z,94997.00
2023-04-18T03:23:22.318Z,94997.00
2023-04-18T03:24:22.372Z,94996.00
2023-04-18T03:25:22.433Z,94997.00
2023-04-18T03:26:22.482Z,94996.00
2023-04-18T03:27:22.550Z,94996.00
2023-04-18T03:28:22.658Z,94994.00
2023-04-18T03:29:22.753Z,94996.00
2023-04-18T03:30:22.717Z,94992.00
2023-04-18T03:31:22.872Z,94994.00
2023-04-18T03:32:22.936Z,94994.00
2023-04-18T03:33:22.946Z,94994.00
2023-04-18T03:34:23.001Z,94996.00
2023-04-18T03:35:23.081Z,94996.00
2023-04-18T03:36:23.123Z,94996.00
2023-04-18T03:37:23.175Z,94996.00
2023-04-18T03:38:23.235Z,94997.00
2023-04-18T03:39:23.343Z,94996.00
2023-04-18T03:40:23.361Z,94996.00
2023-04-18T03:41:23.395Z,94999.00
2023-04-18T03:42:23.542Z,94997.00
2023-04-18T03:43:23.514Z,94999.00
2023-04-18T03:44:23.633Z,94997.00
2023-04-18T03:45:23.656Z,94997.00
2023-04-18T03:46:23.813Z,94996.00
2023-04-18T03:47:23.926Z,94992.00
2023-04-18T03:48:23.819Z,94994.00
2023-04-18T03:49:23.917Z,94992.00
2023-04-18T03:50:23.979Z,94994.00
2023-04-18T03:51:24.051Z,94992.00
2023-04-18T03:52:24.051Z,94992.00
2023-04-18T03:53:24.065Z,94994.00
2023-04-18T03:54:24.064Z,94994.00
2023-04-18T03:55:24.032Z,94994.00
2023-04-18T03:56:24.129Z,94992.00
2023-04-18T03:57:24.198Z,94994.00
2023-04-18T03:58:24.243Z,94994.00
2023-04-18T03:59:24.304Z,94994.00
2023-04-18T04:00:24.376Z,94994.00
2023-04-18T04:01:24.420Z,95001.00
2023-04-18T04:02:24.517Z,95015.00
2023-04-18T04:03:24.525Z,95013.00
2023-04-18T04:04:24.506Z,95017.00
2023-04-18T04:05:24.398Z,95015.00
2023-04-18T04:06:24.434Z,95015.00
2023-04-18T04:07:24.509Z,95015.00
2023-04-18T04:08:25.929Z,95017.00
2023-04-18T04:09:24.533Z,95019.00
2023-04-18T04:10:24.559Z,95017.00
2023-04-18T04:11:24.489Z,95015.00
2023-04-18T04:12:24.497Z,95015.00
2023-04-18T04:13:24.498Z,95017.00
2023-04-18T04:14:24.504Z,95017.00
2023-04-18T04:15:24.469Z,95019.00
2023-04-18T04:16:24.531Z,95019.00
2023-04-18T04:17:24.524Z,95019.00
2023-04-18T04:18:24.482Z,95019.00
2023-04-18T04:19:24.453Z,95021.00
2023-04-18T04:20:24.460Z,95019.00
2023-04-18T04:21:24.481Z,95021.00
2023-04-18T04:22:24.474Z,95021.00
2023-04-18T04:23:24.443Z,95029.00
2023-04-18T04:24:24.429Z,95023.00
2023-04-18T04:25:24.558Z,95027.00
2023-04-18T04:26:24.491Z,95029.00
2023-04-18T04:27:24.407Z,95029.00
2023-04-18T04:28:24.397Z,95031.00
2023-04-18T04:29:24.349Z,95029.00
2023-04-18T04:30:24.378Z,95001.00
2023-04-18T04:31:24.414Z,95003.00
2023-04-18T04:32:24.332Z,95005.00
2023-04-18T04:33:24.349Z,95009.00
2023-04-18T04:34:24.356Z,95011.00
2023-04-18T04:35:24.364Z,95009.00
2023-04-18T04:36:24.315Z,95011.00
2023-04-18T04:37:24.334Z,95013.00
2023-04-18T04:38:24.340Z,95015.00
2023-04-18T04:39:24.320Z,95013.00
2023-04-18T04:40:24.295Z,95017.00
2023-04-18T04:41:24.295Z,95015.00
2023-04-18T04:42:24.286Z,95015.00
2023-04-18T04:43:24.237Z,95015.00
2023-04-18T04:44:24.270Z,95015.00
2023-04-18T04:45:24.273Z,95015.00
2023-04-18T04:46:24.348Z,95015.00
2023-04-18T04:47:24.242Z,95015.00
2023-04-18T04:48:24.226Z,95015.00
2023-04-18T04:49:24.244Z,95015.00
2023-04-18T04:50:24.258Z,95015.00
2023-04-18T04:51:24.233Z,95017.00
2023-04-18T04:52:24.246Z,95017.00
2023-04-18T04:53:24.261Z,95017.00
2023-04-18T04:54:24.187Z,95019.00
2023-04-18T04:55:24.189Z,95019.00
2023-04-18T04:56:24.178Z,95021.00
2023-04-18T04:57:24.183Z,95021.00
2023-04-18T04:58:24.183Z,95023.00
2023-04-18T04:59:24.194Z,95019.00
2023-04-18T05:00:24.226Z,95021.00
2023-04-18T05:01:24.405Z,95025.00
2023-04-18T05:02:24.500Z,95019.00
2023-04-18T05:03:24.571Z,95019.00
2023-04-18T05:04:24.611Z,95021.00
2023-04-18T05:05:24.518Z,95023.00
2023-04-18T05:06:24.446Z,95025.00
2023-04-18T05:07:24.512Z,95023.00
2023-04-18T05:08:24.465Z,95023.00
2023-04-18T05:09:24.411Z,95023.00
2023-04-18T05:10:24.450Z,95023.00
2023-04-18T05:11:24.487Z,95025.00
2023-04-18T05:12:24.492Z,95027.00
2023-04-18T05:13:24.519Z,95025.00
2023-04-18T05:14:24.496Z,95025.00
2023-04-18T05:15:24.621Z,95029.00
2023-04-18T05:16:24.572Z,95027.00
2023-04-18T05:17:24.549Z,95029.00
2023-04-18T05:18:24.544Z,95029.00
2023-04-18T05:19:24.505Z,95029.00
2023-04-18T05:20:24.530Z,95025.00
2023-04-18T05:21:24.487Z,95029.00
2023-04-18T05:22:24.504Z,95029.00
2023-04-18T05:23:24.541Z,95025.00
2023-04-18T05:24:24.515Z,95027.00
2023-04-18T05:25:24.547Z,95027.00
2023-04-18T05:26:24.536Z,95027.00
2023-04-18T05:27:24.514Z,95027.00
2023-04-18T05:28:24.591Z,95027.00
2023-04-18T05:29:24.552Z,95029.00
2023-04-18T05:30:24.622Z,95025.00
2023-04-18T05:31:24.656Z,95025.00
2023-04-18T05:32:24.606Z,95025.00
2023-04-18T05:33:24.684Z,95023.00
2023-04-18T05:34:24.640Z,95023.00
2023-04-18T05:35:24.752Z,95023.00
2023-04-18T05:36:24.786Z,95021.00
2023-04-18T05:37:24.848Z,95025.00
2023-04-18T05:38:24.840Z,95027.00
2023-04-18T05:39:24.943Z,95027.00
2023-04-18T05:40:24.965Z,95029.00
2023-04-18T05:41:24.992Z,95029.00
2023-04-18T05:42:25.002Z,95029.00
2023-04-18T05:43:25.119Z,95031.00
2023-04-18T05:44:25.132Z,95031.00
2023-04-18T05:45:25.268Z,95035.00
2023-04-18T05:46:25.318Z,95033.00
2023-04-18T05:47:25.262Z,95060.00
2023-04-18T05:48:25.315Z,95058.00
2023-04-18T05:49:25.263Z,95037.00
2023-04-18T05:50:25.327Z,95039.00
2023-04-18T05:51:25.719Z,95043.00
2023-04-18T05:52:25.347Z,95043.00
2023-04-18T05:53:25.374Z,95044.00
2023-04-18T05:54:25.362Z,95044.00
2023-04-18T05:55:25.372Z,95041.00
2023-04-18T05:56:25.335Z,95043.00
2023-04-18T05:57:25.814Z,95046.00
2023-04-18T05:58:25.432Z,95046.00
2023-04-18T05:59:25.761Z,95046.00
2023-04-18T06:00:25.354Z,95046.00
2023-04-18T06:01:25.831Z,95046.00
2023-04-18T06:02:25.567Z,95044.00
2023-04-18T06:03:25.705Z,95046.00
2023-04-18T06:04:25.551Z,95046.00
2023-04-18T06:05:25.628Z,95048.00
2023-04-18T06:06:25.436Z,95050.00
2023-04-18T06:07:25.448Z,95054.00
2023-04-18T06:08:25.445Z,95052.00
2023-04-18T06:09:25.460Z,95052.00
2023-04-18T06:10:25.421Z,95054.00
2023-04-18T06:11:25.432Z,95054.00
2023-04-18T06:12:25.525Z,95056.00
2023-04-18T06:13:25.441Z,95056.00
2023-04-18T06:14:25.425Z,95058.00
2023-04-18T06:15:25.513Z,95060.00
2023-04-18T06:16:25.619Z,95060.00
2023-04-18T06:17:25.769Z,95062.00
2023-04-18T06:18:25.685Z,95060.00
2023-04-18T06:19:25.711Z,95062.00
2023-04-18T06:20:25.781Z,95062.00
2023-04-18T06:21:25.812Z,95060.00
2023-04-18T06:22:25.804Z,95060.00
2023-04-18T06:23:25.851Z,95062.00
2023-04-18T06:24:25.845Z,95062.00
2023-04-18T06:25:25.952Z,95060.00
2023-04-18T06:26:25.893Z,95062.00
2023-04-18T06:27:31.562Z,95064.00
2023-04-18T06:28:29.000Z,95062.00
2023-04-18T06:29:25.838Z,95064.00
2023-04-18T06:30:25.852Z,95066.00
2023-04-18T06:31:26.283Z,95062.00
2023-04-18T06:32:26.029Z,95064.00
2023-04-18T06:33:26.196Z,95068.00
2023-04-18T06:34:25.816Z,95068.00
2023-04-18T06:35:26.800Z,95066.00
2023-04-18T06:36:25.812Z,95068.00
2023-04-18T06:37:25.849Z,95068.00
2023-04-18T06:38:25.807Z,95066.00
2023-04-18T06:39:25.841Z,95064.00
2023-04-18T06:40:25.920Z,95068.00
2023-04-18T06:41:26.741Z,95088.00
2023-04-18T06:42:25.749Z,95052.00
2023-04-18T06:43:25.848Z,95084.00
2023-04-18T06:44:25.818Z,95086.00
2023-04-18T06:45:26.251Z,95086.00
2023-04-18T06:46:25.849Z,95086.00
2023-04-18T06:47:25.845Z,95088.00
2023-04-18T06:48:26.253Z,95086.00
2023-04-18T06:49:26.742Z,95084.00
2023-04-18T06:50:25.676Z,95088.00
2023-04-18T06:51:25.743Z,95086.00
2023-04-18T06:52:25.924Z,95088.00
2023-04-18T06:53:25.761Z,95086.00
2023-04-18T06:54:25.900Z,95086.00
2023-04-18T06:55:25.786Z,95090.00
2023-04-18T06:56:25.685Z,95088.00
2023-04-18T06:57:25.712Z,95088.00
2023-04-18T06:58:25.733Z,95090.00
2023-04-18T06:59:25.736Z,95084.00
2023-04-18T07:00:26.052Z,95082.00
2023-04-18T07:01:25.867Z,95082.00
2023-04-18T07:02:25.969Z,95082.00
2023-04-18T07:03:28.195Z,95084.00
2023-04-18T07:04:26.050Z,95080.00
2023-04-18T07:05:26.079Z,95082.00
2023-04-18T07:06:26.039Z,95084.00
2023-04-18T07:07:26.068Z,95084.00
2023-04-18T07:08:26.160Z,95084.00
2023-04-18T07:09:26.146Z,95082.00
2023-04-18T07:10:26.212Z,95082.00
2023-04-18T07:11:26.180Z,95082.00
2023-04-18T07:12:26.235Z,95082.00
2023-04-18T07:13:26.259Z,95082.00
2023-04-18T07:14:26.284Z,95084.00
2023-04-18T07:15:26.518Z,95080.00
2023-04-18T07:16:26.464Z,95084.00
2023-04-18T07:17:27.366Z,95086.00
2023-04-18T07:18:34.732Z,95084.00
2023-04-18T07:19:27.423Z,95082.00
2023-04-18T07:20:26.411Z,95080.00
2023-04-18T07:21:26.512Z,95080.00
2023-04-18T07:22:26.716Z,95080.00
2023-04-18T07:23:26.369Z,95082.00
2023-04-18T07:24:26.374Z,95080.00
2023-04-18T07:25:26.338Z,95084.00
2023-04-18T07:26:26.311Z,95080.00
2023-04-18T07:27:26.336Z,95082.00
2023-04-18T07:28:26.435Z,95086.00
2023-04-18T07:29:26.353Z,95082.00
2023-04-18T07:30:26.359Z,95080.00
2023-04-18T07:31:26.544Z,95082.00
2023-04-18T07:32:26.340Z,95060.00
2023-04-18T07:33:26.387Z,95062.00
2023-04-18T07:34:26.397Z,95062.00
2023-04-18T07:35:26.469Z,95062.00
2023-04-18T07:36:26.689Z,95060.00
2023-04-18T07:37:26.580Z,95062.00
2023-04-18T07:38:26.605Z,95062.00
2023-04-18T07:39:26.618Z,95064.00
2023-04-18T07:40:26.709Z,95062.00
2023-04-18T07:41:27.820Z,95062.00
2023-04-18T07:42:26.822Z,95062.00
2023-04-18T07:43:26.879Z,95088.00
2023-04-18T07:44:26.961Z,95086.00
2023-04-18T07:45:26.981Z,95090.00
2023-04-18T07:46:27.068Z,95086.00
2023-04-18T07:47:28.266Z,95086.00
2023-04-18T07:48:27.302Z,95086.00
2023-04-18T07:49:27.321Z,95084.00
2023-04-18T07:50:27.098Z,95082.00
2023-04-18T07:51:27.041Z,95086.00
2023-04-18T07:52:27.172Z,95090.00
2023-04-18T07:53:26.990Z,95086.00
2023-04-18T07:54:26.996Z,95086.00
2023-04-18T07:55:27.253Z,95086.00
2023-04-18T07:56:26.968Z,95086.00
2023-04-18T07:57:26.967Z,95082.00
2023-04-18T07:58:26.955Z,95082.00
2023-04-18T07:59:26.941Z,95062.00
2023-04-18T08:00:26.976Z,95080.00
2023-04-18T08:01:26.984Z,95078.00
2023-04-18T08:02:27.384Z,95080.00
2023-04-18T08:03:27.072Z,95080.00
2023-04-18T08:04:29.842Z,95080.00
2023-04-18T08:05:26.960Z,95082.00
2023-04-18T08:06:26.980Z,95080.00
2023-04-18T08:07:26.933Z,95080.00
2023-04-18T08:08:26.898Z,95082.00
2023-04-18T08:09:27.258Z,95080.00
2023-04-18T08:10:26.841Z,95078.00
2023-04-18T08:11:26.855Z,95078.00
2023-04-18T08:12:26.919Z,95076.00
2023-04-18T08:13:26.852Z,95076.00
2023-04-18T08:14:26.829Z,95076.00
2023-04-18T08:15:26.825Z,95076.00
2023-04-18T08:16:27.946Z,95074.00
2023-04-18T08:17:26.893Z,95078.00
2023-04-18T08:18:26.847Z,95072.00
2023-04-18T08:19:27.277Z,95074.00
2023-04-18T08:20:26.851Z,95074.00
2023-04-18T08:21:26.937Z,95072.00
2023-04-18T08:22:26.807Z,95074.00
2023-04-18T08:23:26.852Z,95070.00
2023-04-18T08:24:26.842Z,95052.00
2023-04-18T08:25:26.858Z,95048.00
2023-04-18T08:26:26.759Z,95048.00
2023-04-18T08:27:26.843Z,95070.00
2023-04-18T08:28:26.930Z,95066.00
2023-04-18T08:29:26.713Z,95064.00
2023-04-18T08:30:26.793Z,95062.00
2023-04-18T08:31:26.990Z,95064.00
2023-04-18T08:32:26.738Z,95064.00
2023-04-18T08:33:26.696Z,95060.00
2023-04-18T08:34:26.791Z,95062.00
2023-04-18T08:35:26.671Z,95058.00
2023-04-18T08:36:26.666Z,95060.00
2023-04-18T08:37:26.670Z,95058.00
2023-04-18T08:38:26.642Z,95060.00
2023-04-18T08:39:26.623Z,95043.00
2023-04-18T08:40:26.637Z,95044.00
2023-04-18T08:41:26.650Z,95046.00
2023-04-18T08:42:26.663Z,95043.00
2023-04-18T08:43:26.652Z,95041.00
2023-04-18T08:44:26.620Z,95044.00
2023-04-18T08:45:26.664Z,95054.00
2023-04-18T08:46:26.657Z,95062.00
2023-04-18T08:47:26.653Z,95064.00
2023-04-18T08:48:26.593Z,95064.00
2023-04-18T08:49:26.609Z,95064.00
2023-04-18T08:50:26.708Z,95066.00
2023-04-18T08:51:26.591Z,95070.00
2023-04-18T08:52:26.795Z,95070.00
2023-04-18T08:53:26.658Z,95072.00
2023-04-18T08:54:27.412Z,95070.00
2023-04-18T08:55:26.552Z,95070.00
2023-04-18T08:56:26.564Z,95066.00
2023-04-18T08:57:26.553Z,95072.00
2023-04-18T08:58:26.501Z,95070.00
2023-04-18T08:59:26.535Z,95072.00
2023-04-18T09:00:26.480Z,95068.00
2023-04-18T09:01:26.527Z,95072.00
2023-04-18T09:02:28.737Z,95070.00
2023-04-18T09:03:26.754Z,95068.00
2023-04-18T09:04:26.666Z,95070.00
2023-04-18T09:05:26.654Z,95068.00
2023-04-18T09:06:27.824Z,95068.00
2023-04-18T09:07:27.757Z,95068.00
2023-04-18T09:08:26.902Z,95068.00
2023-04-18T09:09:27.322Z,95050.00
2023-04-18T09:10:26.949Z,95066.00
2023-04-18T09:11:26.953Z,95044.00
2023-04-18T09:12:27.059Z,95043.00
2023-04-18T09:13:27.082Z,95048.00
2023-04-18T09:14:27.378Z,95044.00
2023-04-18T09:15:27.158Z,95043.00
2023-04-18T09:16:28.046Z,95041.00
2023-04-18T09:17:27.165Z,95037.00
2023-04-18T09:18:27.224Z,95039.00
2023-04-18T09:19:27.374Z,95037.00
2023-04-18T09:20:27.318Z,95037.00
2023-04-18T09:21:27.279Z,95037.00
2023-04-18T09:22:27.336Z,95035.00
2023-04-18T09:23:27.462Z,95035.00
2023-04-18T09:24:27.480Z,95037.00
2023-04-18T09:25:27.406Z,95035.00
2023-04-18T09:26:27.375Z,95035.00
2023-04-18T09:27:27.361Z,95035.00
2023-04-18T09:28:27.393Z,95037.00
2023-04-18T09:29:27.394Z,95039.00
2023-04-18T09:30:27.380Z,95037.00
2023-04-18T09:31:27.393Z,95035.00
2023-04-18T09:32:27.528Z,95035.00
2023-04-18T09:33:27.365Z,95033.00
2023-04-18T09:34:28.246Z,95035.00
2023-04-18T09:35:27.366Z,95035.00
2023-04-18T09:36:28.396Z,95033.00
2023-04-18T09:37:27.440Z,95033.00
2023-04-18T09:38:27.429Z,95027.00
2023-04-18T09:39:27.453Z,95029.00
2023-04-18T09:40:27.468Z,95027.00
2023-04-18T09:41:27.782Z,95029.00
2023-04-18T09:43:46.524Z,95027.00
2023-04-18T09:44:46.337Z,95023.00
2023-04-18T09:45:46.351Z,95025.00
2023-04-18T09:46:47.614Z,95025.00
2023-04-18T09:47:46.415Z,95023.00
2023-04-18T09:48:46.305Z,95021.00
2023-04-18T09:49:46.283Z,95021.00
2023-04-18T09:50:46.569Z,95023.00
2023-04-18T09:51:46.355Z,95021.00
2023-04-18T09:52:46.278Z,95023.00
2023-04-18T09:53:46.298Z,95013.00
2023-04-18T09:54:48.179Z,95021.00
2023-04-18T09:55:46.239Z,95013.00
2023-04-18T09:56:46.207Z,95015.00
2023-04-18T09:57:46.207Z,95017.00
2023-04-18T09:58:46.200Z,95015.00
2023-04-18T09:59:46.216Z,95015.00
2023-04-18T10:00:46.973Z,95013.00
2023-04-18T10:01:46.236Z,95007.00
2023-04-18T10:02:46.237Z,95011.00
2023-04-18T10:03:46.266Z,95009.00
2023-04-18T10:04:46.255Z,95001.00
2023-04-18T10:05:46.293Z,95009.00
2023-04-18T10:06:46.112Z,95007.00
2023-04-18T10:07:46.181Z,95007.00
2023-04-18T10:08:46.191Z,95007.00
2023-04-18T10:09:46.126Z,95005.00
2023-04-18T10:10:46.752Z,95007.00
2023-04-18T10:11:46.098Z,95005.00
2023-04-18T10:12:47.018Z,95005.00
2023-04-18T10:13:46.096Z,94999.00
2023-04-18T10:14:46.180Z,94999.00
2023-04-18T10:15:46.579Z,94997.00
2023-04-18T10:16:48.418Z,94997.00
2023-04-18T10:18:02.824Z,94997.00
2023-04-18T10:18:47.526Z,94994.00
2023-04-18T10:19:46.552Z,94996.00
2023-04-18T10:20:46.589Z,94992.00
2023-04-18T10:21:46.057Z,94994.00
2023-04-18T10:22:46.059Z,94990.00
2023-04-18T10:23:46.017Z,94986.00
2023-04-18T10:24:46.023Z,94986.00
2023-04-18T10:25:46.033Z,94988.00
2023-04-18T10:26:46.006Z,94984.00
2023-04-18T10:27:46.044Z,94982.00
2023-04-18T10:28:46.048Z,94980.00
2023-04-18T10:29:46.029Z,94978.00
2023-04-18T10:30:45.971Z,94980.00
2023-04-18T10:31:45.988Z,94976.00
2023-04-18T10:32:46.121Z,94972.00
2023-04-18T10:33:52.803Z,94972.00
2023-04-18T10:34:46.986Z,94972.00
2023-04-18T10:35:45.957Z,94966.00
2023-04-18T10:36:45.933Z,94970.00
2023-04-18T10:37:46.079Z,94966.00
2023-04-18T10:38:45.921Z,94962.00
2023-04-18T10:39:45.920Z,94964.00
2023-04-18T10:40:45.938Z,94962.00
2023-04-18T10:41:45.893Z,94968.00
2023-04-18T10:42:46.054Z,94966.00
2023-04-18T10:43:45.896Z,94964.00
2023-04-18T10:44:45.930Z,94966.00
2023-04-18T10:45:45.928Z,94960.00
2023-04-18T10:46:45.925Z,94962.00
2023-04-18T10:47:46.167Z,94958.00
2023-04-18T10:48:45.925Z,94958.00
2023-04-18T10:49:45.992Z,94960.00
2023-04-18T10:50:45.972Z,94960.00
2023-04-18T10:51:46.118Z,94954.00
2023-04-18T10:52:46.570Z,94956.00
2023-04-18T10:53:46.125Z,94952.00
2023-04-18T10:54:46.121Z,94956.00
2023-04-18T10:55:46.185Z,94956.00
2023-04-18T10:56:46.197Z,94954.00
2023-04-18T10:57:46.260Z,94950.00
2023-04-18T10:58:46.407Z,94949.00
2023-04-18T10:59:46.575Z,94949.00
2023-04-18T11:00:46.446Z,94945.00
2023-04-18T11:01:46.435Z,94945.00
2023-04-18T11:02:46.618Z,94943.00
2023-04-18T11:03:46.579Z,94941.00
2023-04-18T11:04:46.561Z,94947.00
2023-04-18T11:05:46.617Z,94945.00
2023-04-18T11:06:46.620Z,94939.00
2023-04-18T11:07:46.636Z,94943.00
2023-04-18T11:08:46.690Z,94943.00
2023-04-18T11:09:46.742Z,94937.00
2023-04-18T11:10:46.800Z,94935.00
2023-04-18T11:11:46.805Z,94935.00
2023-04-18T11:12:46.868Z,94933.00
2023-04-18T11:13:46.927Z,94931.00
2023-04-18T11:14:47.038Z,94933.00
2023-04-18T11:15:46.956Z,94931.00
2023-04-18T11:16:47.149Z,94931.00
2023-04-18T11:17:47.126Z,94931.00
2023-04-18T11:18:47.157Z,94931.00
2023-04-18T11:19:48.045Z,94929.00
2023-04-18T11:20:47.244Z,94931.00
2023-04-18T11:21:47.294Z,94927.00
2023-04-18T11:22:47.314Z,94927.00
2023-04-18T11:23:47.353Z,94923.00
2023-04-18T11:24:47.568Z,94921.00
2023-04-18T11:25:47.426Z,94923.00
2023-04-18T11:26:47.473Z,94927.00
2023-04-18T11:27:47.475Z,94925.00
2023-04-18T11:28:47.564Z,94927.00
2023-04-18T11:29:47.599Z,94925.00
2023-04-18T11:30:47.596Z,94923.00
2023-04-18T11:31:47.671Z,94923.00
2023-04-18T11:32:47.721Z,94921.00
2023-04-18T11:33:47.787Z,94923.00
2023-04-18T11:34:47.807Z,94925.00
2023-04-18T11:35:47.796Z,94921.00
2023-04-18T11:36:47.856Z,94925.00
2023-04-18T11:37:47.915Z,94925.00
2023-04-18T11:38:47.968Z,94925.00
2023-04-18T11:39:48.030Z,94925.00
2023-04-18T11:40:48.036Z,94925.00
2023-04-18T11:41:48.084Z,94919.00
2023-04-18T11:42:48.565Z,94925.00
2023-04-18T11:43:48.165Z,94921.00
2023-04-18T11:44:48.217Z,94919.00
2023-04-18T11:45:48.272Z,94917.00